This is the latest recevied weather packets stored in our database for station/object KA1AL. If no packets are shown the sender has not sent any weather packets the latest 1 day(s).
| Time | Temp. | Humidity | Pressure | Rain* | Wind** | Luminosity | Snow |
|---|---|---|---|---|---|---|---|
| 1778025732 | 13.89° C | 99% | 1005.6 hPa | 1.78 mm | 0.89 m/s, 233° | 0 W/m² | - |
| 1778025429 | 14.44° C | 99% | 1005.6 hPa | 1.78 mm | 0.89 m/s, 263° | 0 W/m² | - |
| 1778025126 | 14.44° C | 99% | 1005.9 hPa | 1.27 mm | 2.24 m/s, 229° | 0 W/m² | - |
| 1778024823 | 14.44° C | 99% | 1006.1 hPa | 1.27 mm | 1.79 m/s, 209° | 0 W/m² | - |
| 1778024520 | 13.89° C | 99% | 1006.1 hPa | 0 mm | 1.34 m/s, 225° | 0 W/m² | - |
| 1778024216 | 14.44° C | 99% | 1006 hPa | 0 mm | 1.34 m/s, 228° | 1 W/m² | - |
| 1778023914 | 14.44° C | 99% | 1005.7 hPa | 0 mm | 2.68 m/s, 217° | 0 W/m² | - |
| 1778023606 | 14.44° C | 99% | 1005.8 hPa | 0 mm | 2.24 m/s, 220° | 2 W/m² | - |
| 1778023303 | 14.44° C | 99% | 1005.6 hPa | 0 mm | 1.79 m/s, 237° | 3 W/m² | - |
| 1778023000 | 14.44° C | 99% | 1005.7 hPa | 3.05 mm | 1.79 m/s, 217° | 3 W/m² | - |
| 1778022699 | 14.44° C | 99% | 1005.7 hPa | 4.83 mm | 1.79 m/s, 221° | 2 W/m² | - |
| 1778022396 | 14.44° C | 99% | 1005.6 hPa | 3.05 mm | 3.13 m/s, 266° | 1 W/m² | - |
| 1778022092 | 14.44° C | 99% | 1005.6 hPa | 3.05 mm | 2.68 m/s, 255° | 2 W/m² | - |
| 1778021789 | 14.44° C | 99% | 1005.8 hPa | 1.78 mm | 2.24 m/s, 279° | 7 W/m² | - |
| 1778021485 | 14.44° C | 99% | 1005.5 hPa | 3.05 mm | 2.24 m/s, 233° | 5 W/m² | - |
| 1778021182 | 15° C | 99% | 1005.7 hPa | 4.32 mm | 4.92 m/s, 281° | 8 W/m² | - |
| 1778020879 | 15° C | 99% | 1005.9 hPa | 4.83 mm | 3.13 m/s, 288° | 7 W/m² | - |
| 1778020576 | 15° C | 99% | 1005.9 hPa | 7.87 mm | 5.81 m/s, 229° | 2 W/m² | - |
| 1778020273 | 15° C | 99% | 1005.7 hPa | 8.89 mm | 2.68 m/s, 285° | 2 W/m² | - |
| 1778019969 | 15.56° C | 96% | 1005.6 hPa | 4.32 mm | 2.68 m/s, 243° | 9 W/m² | - |
| 1778019665 | 17.22° C | 87% | 1005.2 hPa | 0 mm | 4.02 m/s, 260° | 12 W/m² | - |
| 1778019362 | 18.89° C | 79% | 1004.6 hPa | 0 mm | 3.13 m/s, 281° | 1 W/m² | - |
| 1778019058 | 20.56° C | 64% | 1004.5 hPa | 0 mm | 4.02 m/s, 260° | 3 W/m² | - |
| 1778018756 | 20.56° C | 63% | 1003.3 hPa | 0 mm | 4.92 m/s, 243° | 8 W/m² | - |
| 1778018454 | 20.56° C | 63% | 1002.5 hPa | 0 mm | 4.02 m/s, 203° | 16 W/m² | - |
* Rain latest hour (hover to see other rain measurements)
** Current wind speed in m/s (hover to see current wind gust speed)